sensor_id;sensor_type;location;lat;lon;timestamp;P1;durP1;ratioP1;P2;durP2;ratioP2
60336;SDS011;46978;50.288;28.624;2023-03-14T00:00:41;9.05;;;5.58;;
60336;SDS011;46978;50.288;28.624;2023-03-14T00:01:46;10.18;;;5.56;;
60336;SDS011;46978;50.288;28.624;2023-03-14T00:02:52;9.58;;;5.55;;
60336;SDS011;46978;50.288;28.624;2023-03-14T00:03:54;11.07;;;5.50;;
60336;SDS011;46978;50.288;28.624;2023-03-14T00:04:56;9.65;;;6.15;;
60336;SDS011;46978;50.288;28.624;2023-03-14T00:06:01;9.17;;;5.50;;
60336;SDS011;46978;50.288;28.624;2023-03-14T00:07:05;9.82;;;5.71;;
60336;SDS011;46978;50.288;28.624;2023-03-14T00:08:07;12.17;;;5.81;;
60336;SDS011;46978;50.288;28.624;2023-03-14T00:09:08;9.16;;;5.81;;
60336;SDS011;46978;50.288;28.624;2023-03-14T00:10:12;9.54;;;5.97;;
60336;SDS011;46978;50.288;28.624;2023-03-14T00:11:16;9.58;;;6.04;;
60336;SDS011;46978;50.288;28.624;2023-03-14T00:12:20;10.56;;;6.19;;
60336;SDS011;46978;50.288;28.624;2023-03-14T00:13:22;11.22;;;5.96;;
60336;SDS011;46978;50.288;28.624;2023-03-14T00:14:23;8.92;;;6.11;;
60336;SDS011;46978;50.288;28.624;2023-03-14T00:15:25;10.58;;;5.90;;
60336;SDS011;46978;50.288;28.624;2023-03-14T00:16:27;10.85;;;5.50;;
60336;SDS011;46978;50.288;28.624;2023-03-14T00:17:29;9.46;;;5.92;;
60336;SDS011;46978;50.288;28.624;2023-03-14T00:18:31;10.09;;;5.66;;
60336;SDS011;46978;50.288;28.624;2023-03-14T00:19:33;8.87;;;5.65;;
60336;SDS011;46978;50.288;28.624;2023-03-14T00:20:35;8.67;;;5.68;;
60336;SDS011;46978;50.288;28.624;2023-03-14T00:21:37;8.89;;;5.47;;
60336;SDS011;46978;50.288;28.624;2023-03-14T00:22:39;9.53;;;5.61;;
60336;SDS011;46978;50.288;28.624;2023-03-14T00:23:42;9.34;;;5.66;;
60336;SDS011;46978;50.288;28.624;2023-03-14T00:24:44;9.76;;;5.84;;
60336;SDS011;46978;50.288;28.624;2023-03-14T00:25:45;10.26;;;6.10;;
60336;SDS011;46978;50.288;28.624;2023-03-14T00:26:47;10.86;;;5.74;;
60336;SDS011;46978;50.288;28.624;2023-03-14T00:27:50;9.29;;;5.30;;
60336;SDS011;46978;50.288;28.624;2023-03-14T00:28:52;9.91;;;5.71;;
60336;SDS011;46978;50.288;28.624;2023-03-14T00:29:54;8.88;;;5.21;;
60336;SDS011;46978;50.288;28.624;2023-03-14T00:30:56;10.71;;;6.18;;
60336;SDS011;46978;50.288;28.624;2023-03-14T00:31:58;11.06;;;6.73;;
60336;SDS011;46978;50.288;28.624;2023-03-14T00:33:00;12.44;;;6.76;;
60336;SDS011;46978;50.288;28.624;2023-03-14T00:34:01;9.34;;;6.01;;
60336;SDS011;46978;50.288;28.624;2023-03-14T00:35:03;13.06;;;6.46;;
60336;SDS011;46978;50.288;28.624;2023-03-14T00:36:07;15.00;;;6.78;;
60336;SDS011;46978;50.288;28.624;2023-03-14T00:37:11;11.69;;;6.60;;
60336;SDS011;46978;50.288;28.624;2023-03-14T00:38:12;12.21;;;6.20;;
60336;SDS011;46978;50.288;28.624;2023-03-14T00:39:14;13.01;;;6.41;;
60336;SDS011;46978;50.288;28.624;2023-03-14T00:40:15;15.64;;;7.87;;
60336;SDS011;46978;50.288;28.624;2023-03-14T00:41:18;11.59;;;6.56;;
60336;SDS011;46978;50.288;28.624;2023-03-14T00:42:22;10.17;;;6.27;;
60336;SDS011;46978;50.288;28.624;2023-03-14T00:43:24;10.26;;;6.55;;
60336;SDS011;46978;50.288;28.624;2023-03-14T00:44:26;13.23;;;6.63;;
60336;SDS011;46978;50.288;28.624;2023-03-14T00:45:28;9.91;;;6.35;;
60336;SDS011;46978;50.288;28.624;2023-03-14T00:46:29;15.27;;;6.71;;
60336;SDS011;46978;50.288;28.624;2023-03-14T00:47:31;10.39;;;6.30;;
60336;SDS011;46978;50.288;28.624;2023-03-14T00:48:33;11.55;;;6.31;;
60336;SDS011;46978;50.288;28.624;2023-03-14T00:49:35;11.41;;;6.54;;
60336;SDS011;46978;50.288;28.624;2023-03-14T00:50:37;12.25;;;6.81;;
60336;SDS011;46978;50.288;28.624;2023-03-14T00:51:38;11.99;;;6.24;;
60336;SDS011;46978;50.288;28.624;2023-03-14T00:52:40;11.98;;;6.47;;
60336;SDS011;46978;50.288;28.624;2023-03-14T00:53:42;10.74;;;6.04;;
60336;SDS011;46978;50.288;28.624;2023-03-14T00:54:44;10.19;;;6.79;;
60336;SDS011;46978;50.288;28.624;2023-03-14T00:55:46;10.74;;;6.29;;
60336;SDS011;46978;50.288;28.624;2023-03-14T00:56:47;11.69;;;6.44;;
60336;SDS011;46978;50.288;28.624;2023-03-14T00:57:49;9.44;;;5.82;;
60336;SDS011;46978;50.288;28.624;2023-03-14T00:58:54;10.45;;;6.34;;
60336;SDS011;46978;50.288;28.624;2023-03-14T00:59:56;11.37;;;5.97;;
60336;SDS011;46978;50.288;28.624;2023-03-14T01:00:58;11.41;;;6.21;;
60336;SDS011;46978;50.288;28.624;2023-03-14T01:02:00;15.69;;;6.85;;
60336;SDS011;46978;50.288;28.624;2023-03-14T01:03:01;15.28;;;6.84;;
60336;SDS011;46978;50.288;28.624;2023-03-14T01:04:03;10.47;;;6.34;;
60336;SDS011;46978;50.288;28.624;2023-03-14T01:05:05;10.89;;;6.07;;
60336;SDS011;46978;50.288;28.624;2023-03-14T01:06:12;11.22;;;6.37;;
60336;SDS011;46978;50.288;28.624;2023-03-14T01:07:16;12.10;;;6.43;;
60336;SDS011;46978;50.288;28.624;2023-03-14T01:08:18;9.97;;;6.04;;
60336;SDS011;46978;50.288;28.624;2023-03-14T01:09:19;10.74;;;6.47;;
60336;SDS011;46978;50.288;28.624;2023-03-14T01:10:21;10.02;;;6.05;;
60336;SDS011;46978;50.288;28.624;2023-03-14T01:11:24;11.17;;;6.23;;
60336;SDS011;46978;50.288;28.624;2023-03-14T01:12:31;10.96;;;6.26;;
60336;SDS011;46978;50.288;28.624;2023-03-14T01:13:33;9.69;;;6.17;;
60336;SDS011;46978;50.288;28.624;2023-03-14T01:14:34;10.76;;;6.32;;
60336;SDS011;46978;50.288;28.624;2023-03-14T01:15:36;11.27;;;6.89;;
60336;SDS011;46978;50.288;28.624;2023-03-14T01:16:38;10.78;;;6.68;;
60336;SDS011;46978;50.288;28.624;2023-03-14T01:17:40;9.71;;;6.39;;
60336;SDS011;46978;50.288;28.624;2023-03-14T01:18:43;12.45;;;6.61;;
60336;SDS011;46978;50.288;28.624;2023-03-14T01:19:45;13.71;;;6.42;;
60336;SDS011;46978;50.288;28.624;2023-03-14T01:20:47;11.18;;;6.60;;
60336;SDS011;46978;50.288;28.624;2023-03-14T01:21:48;9.46;;;6.14;;
60336;SDS011;46978;50.288;28.624;2023-03-14T01:22:50;10.39;;;6.30;;
60336;SDS011;46978;50.288;28.624;2023-03-14T01:23:52;11.31;;;6.66;;
60336;SDS011;46978;50.288;28.624;2023-03-14T01:24:56;11.61;;;6.65;;
60336;SDS011;46978;50.288;28.624;2023-03-14T01:25:57;13.65;;;7.10;;
60336;SDS011;46978;50.288;28.624;2023-03-14T01:26:59;14.21;;;6.36;;
60336;SDS011;46978;50.288;28.624;2023-03-14T01:28:00;12.11;;;7.22;;
60336;SDS011;46978;50.288;28.624;2023-03-14T01:29:02;11.81;;;7.04;;
60336;SDS011;46978;50.288;28.624;2023-03-14T01:30:04;10.18;;;6.45;;
60336;SDS011;46978;50.288;28.624;2023-03-14T01:31:08;12.87;;;6.59;;
60336;SDS011;46978;50.288;28.624;2023-03-14T01:32:11;11.90;;;6.95;;
60336;SDS011;46978;50.288;28.624;2023-03-14T01:33:12;11.69;;;6.24;;
60336;SDS011;46978;50.288;28.624;2023-03-14T01:34:14;11.12;;;6.74;;
60336;SDS011;46978;50.288;28.624;2023-03-14T01:35:15;11.34;;;6.37;;
60336;SDS011;46978;50.288;28.624;2023-03-14T01:36:18;12.34;;;7.20;;
60336;SDS011;46978;50.288;28.624;2023-03-14T01:37:20;11.25;;;7.09;;
60336;SDS011;46978;50.288;28.624;2023-03-14T01:38:21;12.53;;;6.75;;
60336;SDS011;46978;50.288;28.624;2023-03-14T01:39:23;9.77;;;5.83;;
60336;SDS011;46978;50.288;28.624;2023-03-14T01:40:24;10.36;;;6.54;;
60336;SDS011;46978;50.288;28.624;2023-03-14T01:41:26;11.81;;;6.32;;
60336;SDS011;46978;50.288;28.624;2023-03-14T01:42:28;11.63;;;6.96;;
60336;SDS011;46978;50.288;28.624;2023-03-14T01:43:30;12.41;;;7.05;;
60336;SDS011;46978;50.288;28.624;2023-03-14T01:47:08;10.06;;;6.84;;
60336;SDS011;46978;50.288;28.624;2023-03-14T01:48:10;13.27;;;7.19;;
60336;SDS011;46978;50.288;28.624;2023-03-14T01:50:41;14.96;;;7.56;;
60336;SDS011;46978;50.288;28.624;2023-03-14T01:51:47;14.01;;;8.04;;
60336;SDS011;46978;50.288;28.624;2023-03-14T01:53:00;11.98;;;7.52;;
60336;SDS011;46978;50.288;28.624;2023-03-14T01:54:06;11.34;;;7.23;;
60336;SDS011;46978;50.288;28.624;2023-03-14T01:55:17;13.11;;;7.36;;
60336;SDS011;46978;50.288;28.624;2023-03-14T01:56:18;14.99;;;8.05;;
60336;SDS011;46978;50.288;28.624;2023-03-14T01:57:32;11.73;;;7.43;;
60336;SDS011;46978;50.288;28.624;2023-03-14T01:58:35;14.44;;;8.16;;
60336;SDS011;46978;50.288;28.624;2023-03-14T01:59:38;13.26;;;7.46;;
60336;SDS011;46978;50.288;28.624;2023-03-14T02:00:43;12.00;;;7.52;;
60336;SDS011;46978;50.288;28.624;2023-03-14T02:02:51;12.81;;;7.69;;
60336;SDS011;46978;50.288;28.624;2023-03-14T02:04:04;12.39;;;7.72;;
60336;SDS011;46978;50.288;28.624;2023-03-14T02:05:08;11.45;;;7.24;;
60336;SDS011;46978;50.288;28.624;2023-03-14T02:06:12;11.91;;;7.79;;
60336;SDS011;46978;50.288;28.624;2023-03-14T02:07:43;13.12;;;7.55;;
60336;SDS011;46978;50.288;28.624;2023-03-14T02:09:28;11.61;;;6.83;;
60336;SDS011;46978;50.288;28.624;2023-03-14T02:10:32;11.23;;;7.25;;
60336;SDS011;46978;50.288;28.624;2023-03-14T02:11:37;11.87;;;7.26;;
60336;SDS011;46978;50.288;28.624;2023-03-14T02:12:39;10.75;;;6.95;;
60336;SDS011;46978;50.288;28.624;2023-03-14T02:13:41;12.99;;;7.99;;
60336;SDS011;46978;50.288;28.624;2023-03-14T02:14:43;14.28;;;7.78;;
60336;SDS011;46978;50.288;28.624;2023-03-14T02:15:45;14.22;;;7.77;;
60336;SDS011;46978;50.288;28.624;2023-03-14T02:16:47;11.93;;;7.36;;
60336;SDS011;46978;50.288;28.624;2023-03-14T02:17:49;12.13;;;7.22;;
60336;SDS011;46978;50.288;28.624;2023-03-14T02:18:51;12.86;;;7.86;;
60336;SDS011;46978;50.288;28.624;2023-03-14T02:21:38;13.26;;;7.24;;
60336;SDS011;46978;50.288;28.624;2023-03-14T02:22:40;11.17;;;7.42;;
60336;SDS011;46978;50.288;28.624;2023-03-14T02:23:48;12.82;;;8.00;;
60336;SDS011;46978;50.288;28.624;2023-03-14T02:27:09;12.67;;;7.61;;
60336;SDS011;46978;50.288;28.624;2023-03-14T02:28:16;11.95;;;7.37;;
60336;SDS011;46978;50.288;28.624;2023-03-14T02:29:18;11.74;;;7.34;;
60336;SDS011;46978;50.288;28.624;2023-03-14T02:30:22;12.23;;;7.84;;
60336;SDS011;46978;50.288;28.624;2023-03-14T02:31:26;11.86;;;7.73;;
60336;SDS011;46978;50.288;28.624;2023-03-14T02:32:29;13.59;;;7.51;;
60336;SDS011;46978;50.288;28.624;2023-03-14T02:33:33;13.69;;;7.54;;
60336;SDS011;46978;50.288;28.624;2023-03-14T02:34:37;12.27;;;7.81;;
60336;SDS011;46978;50.288;28.624;2023-03-14T02:35:42;13.19;;;8.31;;
60336;SDS011;46978;50.288;28.624;2023-03-14T02:36:48;13.29;;;7.99;;
60336;SDS011;46978;50.288;28.624;2023-03-14T02:37:59;13.41;;;7.69;;
60336;SDS011;46978;50.288;28.624;2023-03-14T02:39:11;13.40;;;8.27;;
60336;SDS011;46978;50.288;28.624;2023-03-14T02:40:13;14.69;;;7.66;;
60336;SDS011;46978;50.288;28.624;2023-03-14T02:41:15;12.80;;;7.91;;
60336;SDS011;46978;50.288;28.624;2023-03-14T02:42:17;14.61;;;8.29;;
60336;SDS011;46978;50.288;28.624;2023-03-14T02:43:20;15.02;;;7.84;;
60336;SDS011;46978;50.288;28.624;2023-03-14T02:44:22;12.37;;;7.95;;
60336;SDS011;46978;50.288;28.624;2023-03-14T02:45:35;13.07;;;8.09;;
60336;SDS011;46978;50.288;28.624;2023-03-14T02:46:41;10.92;;;7.99;;
60336;SDS011;46978;50.288;28.624;2023-03-14T02:47:44;14.11;;;8.11;;
60336;SDS011;46978;50.288;28.624;2023-03-14T02:49:01;13.11;;;8.11;;
60336;SDS011;46978;50.288;28.624;2023-03-14T02:50:08;12.12;;;8.29;;
60336;SDS011;46978;50.288;28.624;2023-03-14T02:51:11;12.11;;;7.59;;
60336;SDS011;46978;50.288;28.624;2023-03-14T02:52:15;11.91;;;8.67;;
60336;SDS011;46978;50.288;28.624;2023-03-14T02:53:18;13.83;;;8.03;;
60336;SDS011;46978;50.288;28.624;2023-03-14T02:54:21;14.49;;;8.26;;
60336;SDS011;46978;50.288;28.624;2023-03-14T02:55:24;11.66;;;8.31;;
60336;SDS011;46978;50.288;28.624;2023-03-14T02:56:26;13.79;;;8.11;;
60336;SDS011;46978;50.288;28.624;2023-03-14T02:57:27;12.86;;;8.41;;
60336;SDS011;46978;50.288;28.624;2023-03-14T02:58:31;15.99;;;8.54;;
60336;SDS011;46978;50.288;28.624;2023-03-14T02:59:32;13.93;;;8.20;;
60336;SDS011;46978;50.288;28.624;2023-03-14T03:00:34;13.09;;;7.87;;
60336;SDS011;46978;50.288;28.624;2023-03-14T03:01:36;13.36;;;8.97;;
60336;SDS011;46978;50.288;28.624;2023-03-14T03:02:37;12.39;;;8.49;;
60336;SDS011;46978;50.288;28.624;2023-03-14T03:03:39;15.40;;;8.42;;
60336;SDS011;46978;50.288;28.624;2023-03-14T03:04:59;13.88;;;8.46;;
60336;SDS011;46978;50.288;28.624;2023-03-14T03:06:01;13.61;;;8.04;;
60336;SDS011;46978;50.288;28.624;2023-03-14T03:07:03;15.39;;;9.00;;
60336;SDS011;46978;50.288;28.624;2023-03-14T03:08:05;12.95;;;8.20;;
60336;SDS011;46978;50.288;28.624;2023-03-14T03:09:07;14.36;;;8.69;;
60336;SDS011;46978;50.288;28.624;2023-03-14T03:10:09;15.25;;;8.55;;
60336;SDS011;46978;50.288;28.624;2023-03-14T03:11:12;14.39;;;8.83;;
60336;SDS011;46978;50.288;28.624;2023-03-14T03:12:13;16.38;;;10.78;;
60336;SDS011;46978;50.288;28.624;2023-03-14T03:13:15;20.47;;;11.92;;
60336;SDS011;46978;50.288;28.624;2023-03-14T03:14:17;15.31;;;10.03;;
60336;SDS011;46978;50.288;28.624;2023-03-14T03:15:18;14.09;;;9.19;;
60336;SDS011;46978;50.288;28.624;2023-03-14T03:16:20;15.13;;;9.32;;
60336;SDS011;46978;50.288;28.624;2023-03-14T03:17:22;16.47;;;9.59;;
60336;SDS011;46978;50.288;28.624;2023-03-14T03:18:23;14.04;;;8.48;;
60336;SDS011;46978;50.288;28.624;2023-03-14T03:19:25;12.66;;;8.00;;
60336;SDS011;46978;50.288;28.624;2023-03-14T03:20:26;15.34;;;8.84;;
60336;SDS011;46978;50.288;28.624;2023-03-14T03:21:28;13.77;;;8.84;;
60336;SDS011;46978;50.288;28.624;2023-03-14T03:22:30;13.41;;;8.24;;
60336;SDS011;46978;50.288;28.624;2023-03-14T03:23:31;14.19;;;8.52;;
60336;SDS011;46978;50.288;28.624;2023-03-14T03:24:33;12.49;;;8.03;;
60336;SDS011;46978;50.288;28.624;2023-03-14T03:25:35;14.96;;;8.97;;
60336;SDS011;46978;50.288;28.624;2023-03-14T03:26:36;13.80;;;8.58;;
60336;SDS011;46978;50.288;28.624;2023-03-14T03:27:38;13.18;;;8.84;;
60336;SDS011;46978;50.288;28.624;2023-03-14T03:28:40;11.96;;;8.29;;
60336;SDS011;46978;50.288;28.624;2023-03-14T03:29:41;13.82;;;8.34;;
60336;SDS011;46978;50.288;28.624;2023-03-14T03:30:43;12.60;;;8.08;;
60336;SDS011;46978;50.288;28.624;2023-03-14T03:31:45;12.35;;;8.25;;
60336;SDS011;46978;50.288;28.624;2023-03-14T03:32:47;13.03;;;8.30;;
60336;SDS011;46978;50.288;28.624;2023-03-14T03:33:49;13.41;;;8.34;;
60336;SDS011;46978;50.288;28.624;2023-03-14T03:34:50;17.38;;;9.63;;
60336;SDS011;46978;50.288;28.624;2023-03-14T03:35:52;14.33;;;9.97;;
60336;SDS011;46978;50.288;28.624;2023-03-14T03:36:57;13.61;;;8.96;;
60336;SDS011;46978;50.288;28.624;2023-03-14T03:37:59;12.81;;;9.08;;
60336;SDS011;46978;50.288;28.624;2023-03-14T03:39:01;14.51;;;8.54;;
60336;SDS011;46978;50.288;28.624;2023-03-14T03:40:02;14.43;;;9.11;;
60336;SDS011;46978;50.288;28.624;2023-03-14T03:41:05;11.90;;;8.85;;
60336;SDS011;46978;50.288;28.624;2023-03-14T03:42:08;11.53;;;8.21;;
60336;SDS011;46978;50.288;28.624;2023-03-14T03:43:10;13.42;;;8.45;;
60336;SDS011;46978;50.288;28.624;2023-03-14T03:44:11;13.94;;;9.12;;
60336;SDS011;46978;50.288;28.624;2023-03-14T03:45:13;13.39;;;8.39;;
60336;SDS011;46978;50.288;28.624;2023-03-14T03:46:15;14.66;;;8.57;;
60336;SDS011;46978;50.288;28.624;2023-03-14T03:47:16;12.99;;;8.62;;
60336;SDS011;46978;50.288;28.624;2023-03-14T03:48:18;11.83;;;8.24;;
60336;SDS011;46978;50.288;28.624;2023-03-14T03:49:19;12.19;;;8.36;;
60336;SDS011;46978;50.288;28.624;2023-03-14T03:50:21;11.84;;;7.79;;
60336;SDS011;46978;50.288;28.624;2023-03-14T03:51:23;12.40;;;8.02;;
60336;SDS011;46978;50.288;28.624;2023-03-14T03:52:25;12.97;;;8.24;;
60336;SDS011;46978;50.288;28.624;2023-03-14T03:53:27;14.43;;;7.58;;
60336;SDS011;46978;50.288;28.624;2023-03-14T03:54:28;13.23;;;8.23;;
60336;SDS011;46978;50.288;28.624;2023-03-14T03:55:30;13.11;;;7.92;;
60336;SDS011;46978;50.288;28.624;2023-03-14T03:56:32;13.83;;;7.72;;
60336;SDS011;46978;50.288;28.624;2023-03-14T03:57:34;12.44;;;7.89;;
60336;SDS011;46978;50.288;28.624;2023-03-14T03:58:35;12.46;;;8.00;;
60336;SDS011;46978;50.288;28.624;2023-03-14T03:59:37;12.48;;;8.25;;
60336;SDS011;46978;50.288;28.624;2023-03-14T04:00:39;12.41;;;8.10;;
60336;SDS011;46978;50.288;28.624;2023-03-14T04:01:40;11.26;;;7.99;;
60336;SDS011;46978;50.288;28.624;2023-03-14T04:02:42;12.95;;;7.74;;
60336;SDS011;46978;50.288;28.624;2023-03-14T04:03:44;14.24;;;8.82;;
60336;SDS011;46978;50.288;28.624;2023-03-14T04:04:45;11.94;;;7.91;;
60336;SDS011;46978;50.288;28.624;2023-03-14T04:05:57;12.29;;;7.92;;
60336;SDS011;46978;50.288;28.624;2023-03-14T04:07:00;11.79;;;7.83;;
60336;SDS011;46978;50.288;28.624;2023-03-14T04:08:03;12.21;;;8.12;;
60336;SDS011;46978;50.288;28.624;2023-03-14T04:09:05;12.63;;;7.67;;
60336;SDS011;46978;50.288;28.624;2023-03-14T04:10:08;14.30;;;7.70;;
60336;SDS011;46978;50.288;28.624;2023-03-14T04:11:10;12.35;;;7.62;;
60336;SDS011;46978;50.288;28.624;2023-03-14T04:12:12;13.85;;;7.65;;
60336;SDS011;46978;50.288;28.624;2023-03-14T04:13:13;15.76;;;7.91;;
60336;SDS011;46978;50.288;28.624;2023-03-14T04:14:15;11.30;;;7.24;;
60336;SDS011;46978;50.288;28.624;2023-03-14T04:15:17;13.59;;;7.96;;
60336;SDS011;46978;50.288;28.624;2023-03-14T04:16:23;14.99;;;8.17;;
60336;SDS011;46978;50.288;28.624;2023-03-14T04:17:26;12.87;;;7.54;;
60336;SDS011;46978;50.288;28.624;2023-03-14T04:18:28;12.44;;;7.82;;
60336;SDS011;46978;50.288;28.624;2023-03-14T04:19:29;13.99;;;7.94;;
60336;SDS011;46978;50.288;28.624;2023-03-14T04:20:33;15.03;;;8.48;;
60336;SDS011;46978;50.288;28.624;2023-03-14T04:21:35;13.80;;;7.94;;
60336;SDS011;46978;50.288;28.624;2023-03-14T04:22:37;12.58;;;8.21;;
60336;SDS011;46978;50.288;28.624;2023-03-14T04:23:40;14.98;;;8.22;;
60336;SDS011;46978;50.288;28.624;2023-03-14T04:24:42;13.83;;;8.07;;
60336;SDS011;46978;50.288;28.624;2023-03-14T04:25:43;13.55;;;8.72;;
60336;SDS011;46978;50.288;28.624;2023-03-14T04:26:45;15.75;;;7.90;;
60336;SDS011;46978;50.288;28.624;2023-03-14T04:27:47;11.98;;;8.01;;
60336;SDS011;46978;50.288;28.624;2023-03-14T04:28:49;12.89;;;7.44;;
60336;SDS011;46978;50.288;28.624;2023-03-14T04:29:50;12.00;;;7.73;;
60336;SDS011;46978;50.288;28.624;2023-03-14T04:30:52;12.39;;;7.33;;
60336;SDS011;46978;50.288;28.624;2023-03-14T04:31:54;14.01;;;7.86;;
60336;SDS011;46978;50.288;28.624;2023-03-14T04:32:56;12.06;;;7.66;;
60336;SDS011;46978;50.288;28.624;2023-03-14T04:33:57;13.17;;;8.24;;
60336;SDS011;46978;50.288;28.624;2023-03-14T04:34:59;12.66;;;7.91;;
60336;SDS011;46978;50.288;28.624;2023-03-14T04:36:01;13.69;;;8.29;;
60336;SDS011;46978;50.288;28.624;2023-03-14T04:37:02;17.28;;;8.04;;
60336;SDS011;46978;50.288;28.624;2023-03-14T04:38:04;11.99;;;7.63;;
60336;SDS011;46978;50.288;28.624;2023-03-14T04:39:06;13.36;;;7.84;;
60336;SDS011;46978;50.288;28.624;2023-03-14T04:40:09;13.65;;;7.97;;
60336;SDS011;46978;50.288;28.624;2023-03-14T04:41:11;11.03;;;8.01;;
60336;SDS011;46978;50.288;28.624;2023-03-14T04:42:13;15.66;;;8.41;;
60336;SDS011;46978;50.288;28.624;2023-03-14T04:43:14;14.39;;;7.87;;
60336;SDS011;46978;50.288;28.624;2023-03-14T04:44:16;13.86;;;7.20;;
60336;SDS011;46978;50.288;28.624;2023-03-14T04:45:18;12.65;;;7.59;;
60336;SDS011;46978;50.288;28.624;2023-03-14T04:46:20;12.29;;;7.82;;
60336;SDS011;46978;50.288;28.624;2023-03-14T04:47:22;14.42;;;8.32;;
60336;SDS011;46978;50.288;28.624;2023-03-14T04:48:24;13.72;;;7.35;;
60336;SDS011;46978;50.288;28.624;2023-03-14T04:49:26;13.81;;;8.11;;
60336;SDS011;46978;50.288;28.624;2023-03-14T04:50:28;13.55;;;7.19;;
60336;SDS011;46978;50.288;28.624;2023-03-14T04:51:30;11.34;;;6.90;;
60336;SDS011;46978;50.288;28.624;2023-03-14T04:52:31;11.36;;;7.10;;
60336;SDS011;46978;50.288;28.624;2023-03-14T04:53:33;12.04;;;7.05;;
60336;SDS011;46978;50.288;28.624;2023-03-14T04:54:35;12.76;;;7.60;;
60336;SDS011;46978;50.288;28.624;2023-03-14T04:55:36;14.17;;;7.46;;
60336;SDS011;46978;50.288;28.624;2023-03-14T04:56:38;12.47;;;7.61;;
60336;SDS011;46978;50.288;28.624;2023-03-14T04:57:40;10.96;;;7.29;;
60336;SDS011;46978;50.288;28.624;2023-03-14T04:58:41;11.28;;;7.73;;
60336;SDS011;46978;50.288;28.624;2023-03-14T04:59:43;13.21;;;7.26;;
60336;SDS011;46978;50.288;28.624;2023-03-14T05:00:45;12.39;;;7.33;;
60336;SDS011;46978;50.288;28.624;2023-03-14T05:01:47;10.91;;;7.41;;
60336;SDS011;46978;50.288;28.624;2023-03-14T05:02:49;9.71;;;6.48;;
60336;SDS011;46978;50.288;28.624;2023-03-14T05:03:51;13.06;;;7.63;;
60336;SDS011;46978;50.288;28.624;2023-03-14T05:04:54;12.34;;;7.22;;
60336;SDS011;46978;50.288;28.624;2023-03-14T05:05:57;13.04;;;7.60;;
60336;SDS011;46978;50.288;28.624;2023-03-14T05:06:59;11.16;;;7.10;;
60336;SDS011;46978;50.288;28.624;2023-03-14T05:08:01;12.02;;;7.21;;
60336;SDS011;46978;50.288;28.624;2023-03-14T05:09:03;10.03;;;6.68;;
60336;SDS011;46978;50.288;28.624;2023-03-14T05:10:05;10.53;;;6.61;;
60336;SDS011;46978;50.288;28.624;2023-03-14T05:11:09;12.02;;;7.45;;
60336;SDS011;46978;50.288;28.624;2023-03-14T05:12:11;12.01;;;6.69;;
60336;SDS011;46978;50.288;28.624;2023-03-14T05:13:12;10.39;;;6.90;;
60336;SDS011;46978;50.288;28.624;2023-03-14T05:14:14;11.37;;;6.88;;
60336;SDS011;46978;50.288;28.624;2023-03-14T05:15:16;15.57;;;7.06;;
60336;SDS011;46978;50.288;28.624;2023-03-14T05:16:18;11.37;;;6.88;;
60336;SDS011;46978;50.288;28.624;2023-03-14T05:17:19;11.63;;;7.29;;
60336;SDS011;46978;50.288;28.624;2023-03-14T05:18:21;9.85;;;6.19;;
60336;SDS011;46978;50.288;28.624;2023-03-14T05:19:22;13.01;;;8.11;;
60336;SDS011;46978;50.288;28.624;2023-03-14T05:20:24;11.21;;;6.84;;
60336;SDS011;46978;50.288;28.624;2023-03-14T05:21:26;10.27;;;7.24;;
60336;SDS011;46978;50.288;28.624;2023-03-14T05:22:28;11.83;;;6.56;;
60336;SDS011;46978;50.288;28.624;2023-03-14T05:23:29;11.17;;;6.87;;
60336;SDS011;46978;50.288;28.624;2023-03-14T05:24:31;11.95;;;6.89;;
60336;SDS011;46978;50.288;28.624;2023-03-14T05:25:33;11.55;;;7.23;;
60336;SDS011;46978;50.288;28.624;2023-03-14T05:26:35;11.19;;;6.47;;
60336;SDS011;46978;50.288;28.624;2023-03-14T05:27:36;13.11;;;6.94;;
60336;SDS011;46978;50.288;28.624;2023-03-14T05:28:38;12.44;;;6.64;;
60336;SDS011;46978;50.288;28.624;2023-03-14T05:29:40;11.60;;;7.12;;
60336;SDS011;46978;50.288;28.624;2023-03-14T05:30:42;10.69;;;6.72;;
60336;SDS011;46978;50.288;28.624;2023-03-14T05:31:43;11.01;;;6.61;;
60336;SDS011;46978;50.288;28.624;2023-03-14T05:32:45;9.89;;;7.01;;
60336;SDS011;46978;50.288;28.624;2023-03-14T05:33:46;13.05;;;7.11;;
60336;SDS011;46978;50.288;28.624;2023-03-14T05:34:48;14.10;;;6.92;;
60336;SDS011;46978;50.288;28.624;2023-03-14T05:35:50;10.31;;;6.36;;
60336;SDS011;46978;50.288;28.624;2023-03-14T05:36:52;12.13;;;6.41;;
60336;SDS011;46978;50.288;28.624;2023-03-14T05:37:53;10.35;;;6.58;;
60336;SDS011;46978;50.288;28.624;2023-03-14T05:38:55;13.82;;;6.84;;
60336;SDS011;46978;50.288;28.624;2023-03-14T05:39:57;12.25;;;7.20;;
60336;SDS011;46978;50.288;28.624;2023-03-14T05:41:00;11.78;;;7.66;;
60336;SDS011;46978;50.288;28.624;2023-03-14T05:42:02;11.32;;;7.39;;
60336;SDS011;46978;50.288;28.624;2023-03-14T05:43:04;13.33;;;8.43;;
60336;SDS011;46978;50.288;28.624;2023-03-14T05:44:05;13.35;;;7.94;;
60336;SDS011;46978;50.288;28.624;2023-03-14T05:45:07;11.76;;;6.44;;
60336;SDS011;46978;50.288;28.624;2023-03-14T05:46:10;11.91;;;7.53;;
60336;SDS011;46978;50.288;28.624;2023-03-14T05:47:12;11.53;;;6.85;;
60336;SDS011;46978;50.288;28.624;2023-03-14T05:48:14;12.40;;;7.21;;
60336;SDS011;46978;50.288;28.624;2023-03-14T05:49:15;13.24;;;6.41;;
60336;SDS011;46978;50.288;28.624;2023-03-14T05:50:17;11.99;;;6.23;;
60336;SDS011;46978;50.288;28.624;2023-03-14T05:51:19;9.93;;;6.69;;
60336;SDS011;46978;50.288;28.624;2023-03-14T05:52:21;12.53;;;6.80;;
60336;SDS011;46978;50.288;28.624;2023-03-14T05:53:22;9.94;;;6.27;;
60336;SDS011;46978;50.288;28.624;2023-03-14T05:54:24;11.98;;;6.76;;
60336;SDS011;46978;50.288;28.624;2023-03-14T05:55:26;12.64;;;6.95;;
60336;SDS011;46978;50.288;28.624;2023-03-14T05:56:28;11.72;;;6.67;;
60336;SDS011;46978;50.288;28.624;2023-03-14T05:57:29;12.56;;;6.51;;
60336;SDS011;46978;50.288;28.624;2023-03-14T05:58:31;13.39;;;6.61;;
60336;SDS011;46978;50.288;28.624;2023-03-14T05:59:33;10.81;;;6.66;;
60336;SDS011;46978;50.288;28.624;2023-03-14T06:00:34;10.46;;;6.40;;
60336;SDS011;46978;50.288;28.624;2023-03-14T06:01:36;10.22;;;6.18;;
60336;SDS011;46978;50.288;28.624;2023-03-14T06:02:37;10.62;;;6.00;;
60336;SDS011;46978;50.288;28.624;2023-03-14T06:03:39;10.47;;;6.17;;
60336;SDS011;46978;50.288;28.624;2023-03-14T06:04:41;8.81;;;5.86;;
60336;SDS011;46978;50.288;28.624;2023-03-14T06:05:42;9.84;;;6.08;;
60336;SDS011;46978;50.288;28.624;2023-03-14T06:06:44;10.12;;;5.92;;
60336;SDS011;46978;50.288;28.624;2023-03-14T06:07:46;9.16;;;5.62;;
60336;SDS011;46978;50.288;28.624;2023-03-14T06:08:47;10.98;;;5.65;;
60336;SDS011;46978;50.288;28.624;2023-03-14T06:09:49;10.44;;;5.82;;
60336;SDS011;46978;50.288;28.624;2023-03-14T06:10:51;9.99;;;6.42;;
60336;SDS011;46978;50.288;28.624;2023-03-14T06:11:53;10.24;;;6.25;;
60336;SDS011;46978;50.288;28.624;2023-03-14T06:12:55;12.49;;;6.11;;
60336;SDS011;46978;50.288;28.624;2023-03-14T06:13:57;9.31;;;6.10;;
60336;SDS011;46978;50.288;28.624;2023-03-14T06:14:58;9.71;;;5.69;;
60336;SDS011;46978;50.288;28.624;2023-03-14T06:16:00;11.27;;;5.57;;
60336;SDS011;46978;50.288;28.624;2023-03-14T06:17:01;10.43;;;6.04;;